sensor_id;sensor_type;location;lat;lon;timestamp;pressure;altitude;pressure_sealevel;temperature;humidity
30682;BME280;17439;48.092;11.842;2022-10-03T00:00:32;96072.13;;;13.66;73.50
30682;BME280;17439;48.092;11.842;2022-10-03T00:06:28;96071.00;;;13.58;73.40
30682;BME280;17439;48.092;11.842;2022-10-03T00:09:13;96072.13;;;13.57;73.45
30682;BME280;17439;48.092;11.842;2022-10-03T00:12:04;96081.69;;;13.55;73.39
30682;BME280;17439;48.092;11.842;2022-10-03T00:15:02;96067.44;;;13.49;73.09
30682;BME280;17439;48.092;11.842;2022-10-03T00:17:49;96074.31;;;13.47;73.00
30682;BME280;17439;48.092;11.842;2022-10-03T00:20:35;96067.06;;;13.42;72.98
30682;BME280;17439;48.092;11.842;2022-10-03T00:23:26;96064.31;;;13.33;72.43
30682;BME280;17439;48.092;11.842;2022-10-03T00:26:13;96077.72;;;13.30;72.35
30682;BME280;17439;48.092;11.842;2022-10-03T00:29:02;96076.25;;;13.23;72.38
30682;BME280;17439;48.092;11.842;2022-10-03T00:31:45;96082.97;;;13.17;72.19
30682;BME280;17439;48.092;11.842;2022-10-03T00:34:47;96082.88;;;13.09;72.30
30682;BME280;17439;48.092;11.842;2022-10-03T00:37:39;96080.63;;;13.02;72.35
30682;BME280;17439;48.092;11.842;2022-10-03T00:43:40;96083.91;;;12.90;72.33
30682;BME280;17439;48.092;11.842;2022-10-03T00:51:44;96097.88;;;12.75;72.20
30682;BME280;17439;48.092;11.842;2022-10-03T00:57:01;96104.69;;;12.63;72.43
30682;BME280;17439;48.092;11.842;2022-10-03T01:00:00;96106.41;;;12.59;72.56
30682;BME280;17439;48.092;11.842;2022-10-03T01:25:21;96105.00;;;12.25;72.65
30682;BME280;17439;48.092;11.842;2022-10-03T01:30:54;96106.22;;;12.19;72.79
30682;BME280;17439;48.092;11.842;2022-10-03T01:36:30;96104.69;;;12.13;72.96
30682;BME280;17439;48.092;11.842;2022-10-03T01:41:58;96109.13;;;12.09;73.07
30682;BME280;17439;48.092;11.842;2022-10-03T01:44:48;96112.47;;;12.06;72.92
30682;BME280;17439;48.092;11.842;2022-10-03T01:47:37;96128.25;;;12.04;72.96
30682;BME280;17439;48.092;11.842;2022-10-03T01:50:20;96130.06;;;11.94;73.00
30682;BME280;17439;48.092;11.842;2022-10-03T01:53:02;96131.09;;;11.98;72.84
30682;BME280;17439;48.092;11.842;2022-10-03T01:55:35;96141.97;;;11.98;72.70
30682;BME280;17439;48.092;11.842;2022-10-03T01:58:21;96136.34;;;11.95;72.88
30682;BME280;17439;48.092;11.842;2022-10-03T02:00:51;96146.94;;;11.91;72.87
30682;BME280;17439;48.092;11.842;2022-10-03T02:03:28;96147.25;;;11.90;72.77
30682;BME280;17439;48.092;11.842;2022-10-03T02:06:07;96143.25;;;11.87;72.89
30682;BME280;17439;48.092;11.842;2022-10-03T02:11:08;96154.41;;;11.86;73.40
30682;BME280;17439;48.092;11.842;2022-10-03T02:16:41;96170.00;;;11.80;73.66
30682;BME280;17439;48.092;11.842;2022-10-03T02:22:02;96161.34;;;11.78;74.16
30682;BME280;17439;48.092;11.842;2022-10-03T02:27:06;96171.91;;;11.79;74.25
30682;BME280;17439;48.092;11.842;2022-10-03T02:32:51;96167.88;;;11.77;74.05
30682;BME280;17439;48.092;11.842;2022-10-03T02:35:44;96174.94;;;11.78;73.97
30682;BME280;17439;48.092;11.842;2022-10-03T02:44:11;96166.59;;;11.74;73.54
30682;BME280;17439;48.092;11.842;2022-10-03T02:49:56;96167.00;;;11.68;73.71
30682;BME280;17439;48.092;11.842;2022-10-03T02:52:44;96163.75;;;11.66;73.72
30682;BME280;17439;48.092;11.842;2022-10-03T03:08:59;96183.25;;;11.54;73.21
30682;BME280;17439;48.092;11.842;2022-10-03T03:17:44;96190.66;;;11.48;73.34
30682;BME280;17439;48.092;11.842;2022-10-03T03:28:20;96192.59;;;11.48;73.94
30682;BME280;17439;48.092;11.842;2022-10-03T03:33:49;96197.81;;;11.44;73.80
30682;BME280;17439;48.092;11.842;2022-10-03T03:36:34;96202.41;;;11.43;73.81
30682;BME280;17439;48.092;11.842;2022-10-03T03:41:33;96203.84;;;11.41;73.43
30682;BME280;17439;48.092;11.842;2022-10-03T03:47:02;96211.25;;;11.35;73.00
30682;BME280;17439;48.092;11.842;2022-10-03T03:58:43;96215.81;;;11.21;72.76
30682;BME280;17439;48.092;11.842;2022-10-03T04:01:45;96220.25;;;11.17;72.81
30682;BME280;17439;48.092;11.842;2022-10-03T04:08:06;96223.84;;;11.12;72.85
30682;BME280;17439;48.092;11.842;2022-10-03T04:10:41;96221.72;;;11.09;73.24
30682;BME280;17439;48.092;11.842;2022-10-03T04:16:04;96226.84;;;11.11;74.00
30682;BME280;17439;48.092;11.842;2022-10-03T04:24:07;96222.53;;;11.10;73.46
30682;BME280;17439;48.092;11.842;2022-10-03T04:35:31;96240.81;;;11.04;72.92
30682;BME280;17439;48.092;11.842;2022-10-03T04:40:51;96230.25;;;11.02;72.85
30682;BME280;17439;48.092;11.842;2022-10-03T04:43:37;96233.25;;;11.01;72.80
30682;BME280;17439;48.092;11.842;2022-10-03T05:00:24;96227.00;;;11.00;74.13
30682;BME280;17439;48.092;11.842;2022-10-03T05:03:16;96231.84;;;11.03;74.46
30682;BME280;17439;48.092;11.842;2022-10-03T05:08:41;96242.84;;;11.12;75.08
30682;BME280;17439;48.092;11.842;2022-10-03T05:11:40;96241.13;;;11.16;75.26
30682;BME280;17439;48.092;11.842;2022-10-03T05:14:28;96243.25;;;11.19;75.67
30682;BME280;17439;48.092;11.842;2022-10-03T05:17:22;96239.16;;;11.22;75.26
30682;BME280;17439;48.092;11.842;2022-10-03T05:20:16;96235.03;;;11.24;75.39
30682;BME280;17439;48.092;11.842;2022-10-03T05:25:59;96237.91;;;11.33;75.69
30682;BME280;17439;48.092;11.842;2022-10-03T05:29:00;96244.66;;;11.36;75.89
30682;BME280;17439;48.092;11.842;2022-10-03T05:40:26;96256.88;;;11.52;76.51
30682;BME280;17439;48.092;11.842;2022-10-03T05:46:11;96263.28;;;11.56;75.50
30682;BME280;17439;48.092;11.842;2022-10-03T05:48:54;96268.13;;;11.59;75.83
30682;BME280;17439;48.092;11.842;2022-10-03T05:51:42;96272.97;;;11.62;75.57
30682;BME280;17439;48.092;11.842;2022-10-03T06:02:59;96281.06;;;11.82;75.88
30682;BME280;17439;48.092;11.842;2022-10-03T06:05:39;96291.06;;;11.86;75.92
30682;BME280;17439;48.092;11.842;2022-10-03T06:18:35;96295.34;;;12.06;74.91
30682;BME280;17439;48.092;11.842;2022-10-03T06:27:31;96298.09;;;12.20;74.79
30682;BME280;17439;48.092;11.842;2022-10-03T06:29:55;96308.06;;;12.25;75.41
30682;BME280;17439;48.092;11.842;2022-10-03T06:32:42;96306.84;;;12.31;76.08
30682;BME280;17439;48.092;11.842;2022-10-03T06:35:46;96307.06;;;12.34;75.26
30682;BME280;17439;48.092;11.842;2022-10-03T06:49:31;96323.59;;;12.52;75.30
30682;BME280;17439;48.092;11.842;2022-10-03T06:52:03;96324.09;;;12.68;77.56
30682;BME280;17439;48.092;11.842;2022-10-03T06:58:06;96323.59;;;12.80;75.42
30682;BME280;17439;48.092;11.842;2022-10-03T07:03:54;96331.56;;;12.90;74.95
30682;BME280;17439;48.092;11.842;2022-10-03T07:06:51;96334.16;;;12.95;75.32
30682;BME280;17439;48.092;11.842;2022-10-03T07:09:55;96330.22;;;13.01;75.14
30682;BME280;17439;48.092;11.842;2022-10-03T07:40:45;96346.41;;;13.34;74.09
30682;BME280;17439;48.092;11.842;2022-10-03T07:43:43;96348.72;;;13.41;75.93
30682;BME280;17439;48.092;11.842;2022-10-03T07:49:38;96352.53;;;13.54;76.20
30682;BME280;17439;48.092;11.842;2022-10-03T07:52:36;96357.84;;;13.59;74.11
30682;BME280;17439;48.092;11.842;2022-10-03T07:55:27;96357.09;;;13.67;77.05
30682;BME280;17439;48.092;11.842;2022-10-03T08:06:43;96356.78;;;13.91;76.03
30682;BME280;17439;48.092;11.842;2022-10-03T08:09:49;96356.19;;;13.94;73.55
30682;BME280;17439;48.092;11.842;2022-10-03T08:12:56;96348.47;;;13.96;72.24
30682;BME280;17439;48.092;11.842;2022-10-03T08:16:04;96356.75;;;14.05;73.28
30682;BME280;17439;48.092;11.842;2022-10-03T08:21:49;96368.50;;;14.14;73.30
30682;BME280;17439;48.092;11.842;2022-10-03T08:24:26;96356.97;;;14.18;73.66
30682;BME280;17439;48.092;11.842;2022-10-03T08:27:43;96355.84;;;14.19;72.23
30682;BME280;17439;48.092;11.842;2022-10-03T08:30:20;96363.72;;;14.20;72.21
30682;BME280;17439;48.092;11.842;2022-10-03T08:32:58;96361.19;;;14.24;72.81
30682;BME280;17439;48.092;11.842;2022-10-03T08:46:44;96376.59;;;14.28;71.18
30682;BME280;17439;48.092;11.842;2022-10-03T08:49:46;96367.78;;;14.31;71.41
30682;BME280;17439;48.092;11.842;2022-10-03T08:58:35;96386.47;;;14.38;71.27
30682;BME280;17439;48.092;11.842;2022-10-03T09:01:21;96384.22;;;14.40;71.47
30682;BME280;17439;48.092;11.842;2022-10-03T09:07:31;96383.44;;;14.48;73.27
30682;BME280;17439;48.092;11.842;2022-10-03T09:13:20;96388.97;;;14.57;72.21
30682;BME280;17439;48.092;11.842;2022-10-03T09:18:34;96393.91;;;14.55;71.43
30682;BME280;17439;48.092;11.842;2022-10-03T09:43:44;96395.09;;;14.63;71.28
30682;BME280;17439;48.092;11.842;2022-10-03T09:57:11;96396.34;;;14.88;68.50
30682;BME280;17439;48.092;11.842;2022-10-03T09:59:57;96390.72;;;14.93;69.58
30682;BME280;17439;48.092;11.842;2022-10-03T10:05:48;96381.97;;;15.14;67.98
30682;BME280;17439;48.092;11.842;2022-10-03T10:22:32;96378.34;;;15.53;65.42
30682;BME280;17439;48.092;11.842;2022-10-03T10:28:32;96364.03;;;15.56;63.59
30682;BME280;17439;48.092;11.842;2022-10-03T10:37:16;96372.41;;;15.51;64.70
30682;BME280;17439;48.092;11.842;2022-10-03T10:40:07;96365.34;;;15.59;67.44
30682;BME280;17439;48.092;11.842;2022-10-03T10:58:19;96369.72;;;15.86;64.44
30682;BME280;17439;48.092;11.842;2022-10-03T11:01:25;96371.81;;;15.89;58.84
30682;BME280;17439;48.092;11.842;2022-10-03T11:07:10;96358.91;;;15.99;63.52
30682;BME280;17439;48.092;11.842;2022-10-03T11:13:18;96356.84;;;15.95;61.84
30682;BME280;17439;48.092;11.842;2022-10-03T11:21:59;96352.47;;;16.03;60.73
30682;BME280;17439;48.092;11.842;2022-10-03T11:24:54;96358.44;;;16.05;62.06
30682;BME280;17439;48.092;11.842;2022-10-03T11:28:01;96360.66;;;16.03;59.14
30682;BME280;17439;48.092;11.842;2022-10-03T11:39:43;96343.25;;;16.34;59.01
30682;BME280;17439;48.092;11.842;2022-10-03T11:45:02;96344.50;;;16.37;57.91
30682;BME280;17439;48.092;11.842;2022-10-03T11:47:50;96340.84;;;16.32;54.02
30682;BME280;17439;48.092;11.842;2022-10-03T11:50:37;96343.25;;;16.34;58.89
30682;BME280;17439;48.092;11.842;2022-10-03T11:53:21;96332.31;;;16.34;59.13
30682;BME280;17439;48.092;11.842;2022-10-03T11:56:05;96331.47;;;16.33;57.33
30682;BME280;17439;48.092;11.842;2022-10-03T11:59:05;96334.22;;;16.33;60.69
30682;BME280;17439;48.092;11.842;2022-10-03T12:09:59;96319.63;;;16.12;57.76
30682;BME280;17439;48.092;11.842;2022-10-03T12:12:37;96324.66;;;16.01;55.40
30682;BME280;17439;48.092;11.842;2022-10-03T12:15:30;96316.63;;;15.96;57.68
30682;BME280;17439;48.092;11.842;2022-10-03T12:18:27;96318.38;;;15.92;58.14
30682;BME280;17439;48.092;11.842;2022-10-03T12:26:15;96323.84;;;16.01;60.16
30682;BME280;17439;48.092;11.842;2022-10-03T12:28:50;96315.31;;;16.02;56.62
30682;BME280;17439;48.092;11.842;2022-10-03T12:31:23;96320.94;;;16.06;58.50
30682;BME280;17439;48.092;11.842;2022-10-03T12:34:02;96311.63;;;16.07;58.54
30682;BME280;17439;48.092;11.842;2022-10-03T12:37:05;96314.69;;;16.05;58.50
30682;BME280;17439;48.092;11.842;2022-10-03T12:40:03;96310.00;;;16.06;57.71
30682;BME280;17439;48.092;11.842;2022-10-03T12:42:41;96308.56;;;16.08;58.79
30682;BME280;17439;48.092;11.842;2022-10-03T12:45:31;96300.34;;;16.08;61.15
30682;BME280;17439;48.092;11.842;2022-10-03T12:48:21;96302.44;;;16.11;57.02
30682;BME280;17439;48.092;11.842;2022-10-03T12:50:58;96298.03;;;16.19;61.90
30682;BME280;17439;48.092;11.842;2022-10-03T12:53:47;96289.34;;;16.26;54.05
30682;BME280;17439;48.092;11.842;2022-10-03T12:56:33;96294.13;;;16.38;60.45
30682;BME280;17439;48.092;11.842;2022-10-03T12:59:17;96288.78;;;16.50;56.15
30682;BME280;17439;48.092;11.842;2022-10-03T13:04:41;96293.97;;;16.73;57.27
30682;BME280;17439;48.092;11.842;2022-10-03T13:10:13;96293.25;;;16.93;57.44
30682;BME280;17439;48.092;11.842;2022-10-03T13:12:50;96291.75;;;17.04;54.32
30682;BME280;17439;48.092;11.842;2022-10-03T13:21:14;96279.78;;;17.30;58.34
30682;BME280;17439;48.092;11.842;2022-10-03T13:24:06;96288.22;;;17.46;58.99
30682;BME280;17439;48.092;11.842;2022-10-03T13:27:08;96291.13;;;17.62;56.35
30682;BME280;17439;48.092;11.842;2022-10-03T13:29:33;96283.66;;;17.71;56.91
30682;BME280;17439;48.092;11.842;2022-10-03T13:32:15;96284.72;;;17.79;56.75
30682;BME280;17439;48.092;11.842;2022-10-03T13:35:19;96277.38;;;17.71;53.38
30682;BME280;17439;48.092;11.842;2022-10-03T13:38:03;96278.38;;;17.66;52.88
30682;BME280;17439;48.092;11.842;2022-10-03T13:40:34;96280.06;;;17.58;55.75
30682;BME280;17439;48.092;11.842;2022-10-03T13:43:09;96275.78;;;17.49;53.29
30682;BME280;17439;48.092;11.842;2022-10-03T13:45:39;96273.91;;;17.40;56.34
30682;BME280;17439;48.092;11.842;2022-10-03T13:48:21;96278.00;;;17.34;55.27
30682;BME280;17439;48.092;11.842;2022-10-03T13:53:52;96273.50;;;17.30;58.09
30682;BME280;17439;48.092;11.842;2022-10-03T13:59:35;96268.50;;;17.32;56.35
30682;BME280;17439;48.092;11.842;2022-10-03T14:04:47;96262.09;;;17.28;55.58
30682;BME280;17439;48.092;11.842;2022-10-03T14:08:05;96266.16;;;17.21;58.60
30682;BME280;17439;48.092;11.842;2022-10-03T14:13:25;96262.44;;;17.26;56.47
30682;BME280;17439;48.092;11.842;2022-10-03T14:16:12;96252.59;;;17.25;57.22
30682;BME280;17439;48.092;11.842;2022-10-03T14:18:47;96256.63;;;17.28;56.05
30682;BME280;17439;48.092;11.842;2022-10-03T14:21:39;96254.66;;;17.28;58.89
30682;BME280;17439;48.092;11.842;2022-10-03T14:24:40;96255.47;;;17.29;58.03
30682;BME280;17439;48.092;11.842;2022-10-03T14:27:39;96258.69;;;17.31;56.72
30682;BME280;17439;48.092;11.842;2022-10-03T14:30:19;96258.34;;;17.32;56.79
30682;BME280;17439;48.092;11.842;2022-10-03T14:33:09;96259.47;;;17.31;56.76
30682;BME280;17439;48.092;11.842;2022-10-03T14:35:44;96256.94;;;17.26;55.42
30682;BME280;17439;48.092;11.842;2022-10-03T14:41:08;96249.00;;;17.12;54.83
30682;BME280;17439;48.092;11.842;2022-10-03T14:43:47;96248.03;;;17.08;57.91
30682;BME280;17439;48.092;11.842;2022-10-03T14:46:18;96249.69;;;17.00;55.14
30682;BME280;17439;48.092;11.842;2022-10-03T14:48:49;96259.88;;;17.00;56.29
30682;BME280;17439;48.092;11.842;2022-10-03T14:51:20;96260.84;;;16.95;57.70
30682;BME280;17439;48.092;11.842;2022-10-03T14:53:55;96256.38;;;16.91;54.69
30682;BME280;17439;48.092;11.842;2022-10-03T14:56:23;96255.44;;;16.86;57.00
30682;BME280;17439;48.092;11.842;2022-10-03T14:58:55;96253.66;;;16.82;57.64
30682;BME280;17439;48.092;11.842;2022-10-03T15:01:24;96254.34;;;16.79;56.72
30682;BME280;17439;48.092;11.842;2022-10-03T15:03:52;96253.44;;;16.66;58.03
30682;BME280;17439;48.092;11.842;2022-10-03T15:09:12;96247.63;;;16.67;57.43
30682;BME280;17439;48.092;11.842;2022-10-03T15:11:46;96244.06;;;16.67;56.96
30682;BME280;17439;48.092;11.842;2022-10-03T15:14:14;96247.84;;;16.62;57.92
30682;BME280;17439;48.092;11.842;2022-10-03T15:16:46;96246.41;;;16.56;57.00
30682;BME280;17439;48.092;11.842;2022-10-03T15:19:39;96240.31;;;16.50;57.58
30682;BME280;17439;48.092;11.842;2022-10-03T15:27:33;96237.63;;;16.42;59.42
30682;BME280;17439;48.092;11.842;2022-10-03T15:30:03;96241.03;;;16.39;58.86
30682;BME280;17439;48.092;11.842;2022-10-03T15:32:39;96239.28;;;16.34;58.41
30682;BME280;17439;48.092;11.842;2022-10-03T15:35:16;96243.00;;;16.29;57.67
30682;BME280;17439;48.092;11.842;2022-10-03T15:37:43;96247.50;;;16.25;59.90
30682;BME280;17439;48.092;11.842;2022-10-03T15:40:22;96246.56;;;16.21;58.51
30682;BME280;17439;48.092;11.842;2022-10-03T15:45:55;96245.78;;;16.12;58.99
30682;BME280;17439;48.092;11.842;2022-10-03T15:48:23;96249.97;;;16.09;58.65
30682;BME280;17439;48.092;11.842;2022-10-03T15:50:52;96247.09;;;16.06;57.86
30682;BME280;17439;48.092;11.842;2022-10-03T15:53:23;96251.13;;;16.00;58.54
30682;BME280;17439;48.092;11.842;2022-10-03T15:56:12;96246.97;;;15.93;57.80
30682;BME280;17439;48.092;11.842;2022-10-03T15:58:48;96245.38;;;15.92;57.77
30682;BME280;17439;48.092;11.842;2022-10-03T16:01:20;96244.41;;;15.88;58.19
30682;BME280;17439;48.092;11.842;2022-10-03T16:04:16;96242.50;;;15.80;58.29
30682;BME280;17439;48.092;11.842;2022-10-03T16:14:22;96242.50;;;15.63;59.45
30682;BME280;17439;48.092;11.842;2022-10-03T16:16:57;96243.31;;;15.54;58.98
30682;BME280;17439;48.092;11.842;2022-10-03T16:19:26;96236.41;;;15.48;60.26
30682;BME280;17439;48.092;11.842;2022-10-03T16:22:04;96244.28;;;15.41;59.36
30682;BME280;17439;48.092;11.842;2022-10-03T16:24:39;96240.44;;;15.33;60.28
30682;BME280;17439;48.092;11.842;2022-10-03T16:27:12;96244.78;;;15.26;60.33
30682;BME280;17439;48.092;11.842;2022-10-03T16:29:46;96244.47;;;15.18;60.82
30682;BME280;17439;48.092;11.842;2022-10-03T16:32:20;96251.53;;;15.11;61.11
30682;BME280;17439;48.092;11.842;2022-10-03T16:34:48;96244.91;;;15.03;61.72
30682;BME280;17439;48.092;11.842;2022-10-03T16:37:18;96245.72;;;14.95;61.65
30682;BME280;17439;48.092;11.842;2022-10-03T16:39:56;96241.38;;;14.85;61.50
30682;BME280;17439;48.092;11.842;2022-10-03T16:42:26;96246.50;;;14.78;62.10
30682;BME280;17439;48.092;11.842;2022-10-03T16:45:00;96250.84;;;14.70;62.51
30682;BME280;17439;48.092;11.842;2022-10-03T16:47:33;96244.84;;;14.59;61.91
30682;BME280;17439;48.092;11.842;2022-10-03T16:50:02;96247.22;;;14.52;62.61
30682;BME280;17439;48.092;11.842;2022-10-03T16:52:31;96245.56;;;14.42;62.59
30682;BME280;17439;48.092;11.842;2022-10-03T16:55:02;96254.53;;;14.34;62.75
30682;BME280;17439;48.092;11.842;2022-10-03T16:57:38;96249.38;;;14.24;62.42
30682;BME280;17439;48.092;11.842;2022-10-03T17:00:13;96255.88;;;14.14;62.48
30682;BME280;17439;48.092;11.842;2022-10-03T17:02:41;96255.56;;;14.07;62.96
30682;BME280;17439;48.092;11.842;2022-10-03T17:05:11;96268.00;;;13.99;62.82
30682;BME280;17439;48.092;11.842;2022-10-03T17:07:41;96260.44;;;13.87;62.88
30682;BME280;17439;48.092;11.842;2022-10-03T17:12:48;96265.47;;;13.71;63.49
30682;BME280;17439;48.092;11.842;2022-10-03T17:15:22;96264.59;;;13.62;63.54
30682;BME280;17439;48.092;11.842;2022-10-03T17:17:53;96269.19;;;13.53;63.23
30682;BME280;17439;48.092;11.842;2022-10-03T17:23:01;96275.28;;;13.36;63.68
30682;BME280;17439;48.092;11.842;2022-10-03T17:28:03;96270.97;;;13.21;63.79
30682;BME280;17439;48.092;11.842;2022-10-03T17:30:46;96279.59;;;13.14;63.75
30682;BME280;17439;48.092;11.842;2022-10-03T17:33:19;96276.47;;;13.07;63.99
30682;BME280;17439;48.092;11.842;2022-10-03T17:41:23;96274.19;;;12.86;64.29
30682;BME280;17439;48.092;11.842;2022-10-03T17:44:10;96273.50;;;12.81;64.19
30682;BME280;17439;48.092;11.842;2022-10-03T17:46:42;96279.88;;;12.76;64.47
30682;BME280;17439;48.092;11.842;2022-10-03T17:51:41;96270.59;;;12.63;64.54
30682;BME280;17439;48.092;11.842;2022-10-03T17:54:15;96277.25;;;12.57;64.72
30682;BME280;17439;48.092;11.842;2022-10-03T17:56:51;96276.53;;;12.51;64.51
30682;BME280;17439;48.092;11.842;2022-10-03T17:59:25;96280.47;;;12.45;64.59
30682;BME280;17439;48.092;11.842;2022-10-03T18:01:56;96277.84;;;12.40;64.85
30682;BME280;17439;48.092;11.842;2022-10-03T18:04:35;96289.13;;;12.33;64.83
30682;BME280;17439;48.092;11.842;2022-10-03T18:07:18;96285.41;;;12.29;64.67
30682;BME280;17439;48.092;11.842;2022-10-03T18:09:48;96288.53;;;12.23;65.15
30682;BME280;17439;48.092;11.842;2022-10-03T18:12:27;96295.97;;;12.17;64.98
30682;BME280;17439;48.092;11.842;2022-10-03T18:20:59;96287.06;;;11.97;65.09
30682;BME280;17439;48.092;11.842;2022-10-03T18:23:39;96286.88;;;11.94;65.29
30682;BME280;17439;48.092;11.842;2022-10-03T18:26:33;96285.63;;;11.86;65.17
30682;BME280;17439;48.092;11.842;2022-10-03T18:32:13;96286.41;;;11.73;65.24
30682;BME280;17439;48.092;11.842;2022-10-03T18:39:57;96292.06;;;11.57;65.63
30682;BME280;17439;48.092;11.842;2022-10-03T18:42:26;96288.34;;;11.53;65.82
30682;BME280;17439;48.092;11.842;2022-10-03T18:44:58;96300.09;;;11.49;65.61
30682;BME280;17439;48.092;11.842;2022-10-03T18:55:33;96294.69;;;11.30;65.58
30682;BME280;17439;48.092;11.842;2022-10-03T18:58:16;96288.81;;;11.22;65.51
30682;BME280;17439;48.092;11.842;2022-10-03T19:00:55;96289.69;;;11.18;65.73
30682;BME280;17439;48.092;11.842;2022-10-03T19:03:35;96291.41;;;11.14;65.61
30682;BME280;17439;48.092;11.842;2022-10-03T19:06:46;96292.03;;;11.05;65.59
30682;BME280;17439;48.092;11.842;2022-10-03T19:09:34;96298.88;;;11.03;66.29
30682;BME280;17439;48.092;11.842;2022-10-03T19:12:16;96302.75;;;10.97;65.75
30682;BME280;17439;48.092;11.842;2022-10-03T19:15:16;96293.06;;;10.91;65.82
30682;BME280;17439;48.092;11.842;2022-10-03T19:18:05;96288.22;;;10.87;65.95
30682;BME280;17439;48.092;11.842;2022-10-03T19:20:40;96290.72;;;10.84;66.17
30682;BME280;17439;48.092;11.842;2022-10-03T19:25:47;96279.41;;;10.77;66.34
30682;BME280;17439;48.092;11.842;2022-10-03T19:28:24;96286.53;;;10.73;66.31
30682;BME280;17439;48.092;11.842;2022-10-03T19:31:20;96285.19;;;10.70;66.38
30682;BME280;17439;48.092;11.842;2022-10-03T19:33:48;96290.09;;;10.68;66.51
30682;BME280;17439;48.092;11.842;2022-10-03T19:36:20;96288.78;;;10.65;66.64
30682;BME280;17439;48.092;11.842;2022-10-03T19:38:48;96290.97;;;10.63;66.75
30682;BME280;17439;48.092;11.842;2022-10-03T19:41:37;96286.13;;;10.60;66.62
30682;BME280;17439;48.092;11.842;2022-10-03T19:44:16;96289.44;;;10.57;66.47
30682;BME280;17439;48.092;11.842;2022-10-03T19:46:55;96282.66;;;10.55;66.55
30682;BME280;17439;48.092;11.842;2022-10-03T19:52:18;96280.31;;;10.48;66.63
30682;BME280;17439;48.092;11.842;2022-10-03T19:54:54;96288.72;;;10.46;66.55
30682;BME280;17439;48.092;11.842;2022-10-03T20:00:06;96283.66;;;10.40;66.76
30682;BME280;17439;48.092;11.842;2022-10-03T20:02:39;96285.03;;;10.37;66.97
30682;BME280;17439;48.092;11.842;2022-10-03T20:05:07;96284.53;;;10.35;67.02
30682;BME280;17439;48.092;11.842;2022-10-03T20:07:43;96283.47;;;10.31;66.83
30682;BME280;17439;48.092;11.842;2022-10-03T20:10:56;96277.81;;;10.27;67.00
30682;BME280;17439;48.092;11.842;2022-10-03T20:12:57;96286.50;;;10.24;67.03
30682;BME280;17439;48.092;11.842;2022-10-03T20:15:24;96280.59;;;10.22;67.09
30682;BME280;17439;48.092;11.842;2022-10-03T20:17:58;96281.66;;;10.21;66.66
30682;BME280;17439;48.092;11.842;2022-10-03T20:20:27;96277.66;;;10.19;66.69
30682;BME280;17439;48.092;11.842;2022-10-03T20:23:04;96278.50;;;10.14;66.40
30682;BME280;17439;48.092;11.842;2022-10-03T20:25:37;96279.88;;;10.11;66.42
30682;BME280;17439;48.092;11.842;2022-10-03T20:28:07;96289.41;;;10.09;66.75
30682;BME280;17439;48.092;11.842;2022-10-03T20:30:46;96285.66;;;10.05;66.76
30682;BME280;17439;48.092;11.842;2022-10-03T20:33:22;96290.84;;;10.01;66.61
30682;BME280;17439;48.092;11.842;2022-10-03T20:36:01;96283.28;;;9.98;66.78
30682;BME280;17439;48.092;11.842;2022-10-03T20:41:11;96279.53;;;9.94;66.78
30682;BME280;17439;48.092;11.842;2022-10-03T20:43:44;96274.66;;;9.91;66.79
30682;BME280;17439;48.092;11.842;2022-10-03T20:46:48;96270.94;;;9.87;66.61
30682;BME280;17439;48.092;11.842;2022-10-03T20:49:26;96272.53;;;9.88;66.96
30682;BME280;17439;48.092;11.842;2022-10-03T20:52:06;96273.94;;;9.85;66.75
30682;BME280;17439;48.092;11.842;2022-10-03T20:54:46;96276.41;;;9.82;66.90
30682;BME280;17439;48.092;11.842;2022-10-03T20:57:22;96269.66;;;9.79;66.90
30682;BME280;17439;48.092;11.842;2022-10-03T21:00:18;96278.34;;;9.76;66.82
30682;BME280;17439;48.092;11.842;2022-10-03T21:05:37;96271.88;;;9.72;66.97
30682;BME280;17439;48.092;11.842;2022-10-03T21:08:18;96272.16;;;9.70;66.75
30682;BME280;17439;48.092;11.842;2022-10-03T21:10:53;96268.94;;;9.68;67.31
30682;BME280;17439;48.092;11.842;2022-10-03T21:13:32;96269.50;;;9.65;67.10
30682;BME280;17439;48.092;11.842;2022-10-03T21:16:03;96265.47;;;9.62;67.31
30682;BME280;17439;48.092;11.842;2022-10-03T21:18:44;96266.06;;;9.59;67.33
30682;BME280;17439;48.092;11.842;2022-10-03T21:21:15;96265.22;;;9.59;67.30
30682;BME280;17439;48.092;11.842;2022-10-03T21:26:31;96263.38;;;9.54;67.47
30682;BME280;17439;48.092;11.842;2022-10-03T21:31:50;96260.44;;;9.51;67.37
30682;BME280;17439;48.092;11.842;2022-10-03T21:34:34;96254.50;;;9.49;67.16
30682;BME280;17439;48.092;11.842;2022-10-03T21:37:12;96257.19;;;9.49;67.18
30682;BME280;17439;48.092;11.842;2022-10-03T21:39:49;96257.50;;;9.47;67.53
30682;BME280;17439;48.092;11.842;2022-10-03T21:42:25;96251.28;;;9.47;67.71
30682;BME280;17439;48.092;11.842;2022-10-03T21:45:08;96250.72;;;9.44;67.14
30682;BME280;17439;48.092;11.842;2022-10-03T21:47:46;96245.59;;;9.43;67.38
30682;BME280;17439;48.092;11.842;2022-10-03T21:50:21;96254.56;;;9.43;67.28
30682;BME280;17439;48.092;11.842;2022-10-03T21:52:58;96254.56;;;9.43;67.82
30682;BME280;17439;48.092;11.842;2022-10-03T21:55:37;96252.91;;;9.42;67.78
30682;BME280;17439;48.092;11.842;2022-10-03T22:01:11;96250.22;;;9.42;67.57
30682;BME280;17439;48.092;11.842;2022-10-03T22:06:47;96252.34;;;9.46;68.28
30682;BME280;17439;48.092;11.842;2022-10-03T22:09:16;96245.88;;;9.47;68.49
30682;BME280;17439;48.092;11.842;2022-10-03T22:11:46;96231.22;;;9.48;68.00
30682;BME280;17439;48.092;11.842;2022-10-03T22:14:35;96230.13;;;9.49;68.46
30682;BME280;17439;48.092;11.842;2022-10-03T22:20:10;96213.38;;;9.47;67.42
30682;BME280;17439;48.092;11.842;2022-10-03T22:23:13;96212.56;;;9.46;67.33